sensor_id;sensor_type;location;lat;lon;timestamp;pressure;altitude;pressure_sealevel;temperature;humidity
59829;BME280;45708;51.848;107.620;2023-04-07T00:02:40;94748.69;;;4.09;31.56
59829;BME280;45708;51.848;107.620;2023-04-07T00:07:41;94738.72;;;3.98;29.26
59829;BME280;45708;51.848;107.620;2023-04-07T00:12:42;94722.56;;;4.09;29.49
59829;BME280;45708;51.848;107.620;2023-04-07T00:17:42;94726.38;;;4.35;28.07
59829;BME280;45708;51.848;107.620;2023-04-07T00:22:43;94728.69;;;5.55;27.99
59829;BME280;45708;51.848;107.620;2023-04-07T00:27:44;94721.19;;;6.59;26.53
59829;BME280;45708;51.848;107.620;2023-04-07T00:32:45;94708.22;;;7.04;26.77
59829;BME280;45708;51.848;107.620;2023-04-07T00:37:46;94698.53;;;6.91;25.68
59829;BME280;45708;51.848;107.620;2023-04-07T00:42:46;94704.13;;;7.21;26.66
59829;BME280;45708;51.848;107.620;2023-04-07T00:47:47;94701.53;;;7.59;25.73
59829;BME280;45708;51.848;107.620;2023-04-07T00:52:49;94700.13;;;7.94;25.23
59829;BME280;45708;51.848;107.620;2023-04-07T00:57:50;94696.56;;;8.45;24.64
59829;BME280;45708;51.848;107.620;2023-04-07T01:02:57;94692.63;;;9.16;23.73
59829;BME280;45708;51.848;107.620;2023-04-07T01:18:31;94671.25;;;11.26;21.21
59829;BME280;45708;51.848;107.620;2023-04-07T01:24:00;94668.50;;;10.97;23.00
59829;BME280;45708;51.848;107.620;2023-04-07T01:29:32;94664.44;;;11.30;23.17
59829;BME280;45708;51.848;107.620;2023-04-07T01:34:34;94664.69;;;12.26;20.65
59829;BME280;45708;51.848;107.620;2023-04-07T01:39:37;94653.84;;;12.61;19.80
59829;BME280;45708;51.848;107.620;2023-04-07T01:44:38;94644.28;;;12.76;19.03
59829;BME280;45708;51.848;107.620;2023-04-07T01:49:40;94613.00;;;12.06;19.39
59829;BME280;45708;51.848;107.620;2023-04-07T01:54:42;94643.31;;;12.15;19.35
59829;BME280;45708;51.848;107.620;2023-04-07T01:59:43;94627.19;;;11.32;18.92
59829;BME280;45708;51.848;107.620;2023-04-07T02:05:05;94620.69;;;11.22;19.84
59829;BME280;45708;51.848;107.620;2023-04-07T02:10:12;94610.88;;;10.48;19.42
59829;BME280;45708;51.848;107.620;2023-04-07T02:15:15;94601.91;;;10.25;19.30
59829;BME280;45708;51.848;107.620;2023-04-07T02:20:17;94606.16;;;10.85;19.57
59829;BME280;45708;51.848;107.620;2023-04-07T02:25:30;94594.91;;;9.18;20.28
59829;BME280;45708;51.848;107.620;2023-04-07T02:30:31;94592.50;;;6.21;23.17
59829;BME280;45708;51.848;107.620;2023-04-07T02:35:32;94586.88;;;4.97;24.36
59829;BME280;45708;51.848;107.620;2023-04-07T02:40:33;94571.97;;;4.08;25.77
59829;BME280;45708;51.848;107.620;2023-04-07T02:45:34;94568.41;;;3.88;26.02
59829;BME280;45708;51.848;107.620;2023-04-07T02:50:35;94568.44;;;3.94;25.76
59829;BME280;45708;51.848;107.620;2023-04-07T02:55:35;94551.19;;;4.00;25.97
59829;BME280;45708;51.848;107.620;2023-04-07T03:00:36;94544.44;;;4.12;25.72
59829;BME280;45708;51.848;107.620;2023-04-07T03:05:37;94536.09;;;4.30;25.63
59829;BME280;45708;51.848;107.620;2023-04-07T03:10:38;94537.25;;;4.21;25.72
59829;BME280;45708;51.848;107.620;2023-04-07T03:15:39;94536.72;;;4.39;26.02
59829;BME280;45708;51.848;107.620;2023-04-07T03:20:40;94480.25;;;4.44;25.63
59829;BME280;45708;51.848;107.620;2023-04-07T03:25:41;94513.97;;;5.00;25.60
59829;BME280;45708;51.848;107.620;2023-04-07T03:30:41;94504.13;;;4.96;25.79
59829;BME280;45708;51.848;107.620;2023-04-07T03:35:42;94494.50;;;5.36;25.45
59829;BME280;45708;51.848;107.620;2023-04-07T03:40:44;94487.66;;;5.22;25.49
59829;BME280;45708;51.848;107.620;2023-04-07T03:45:45;94472.75;;;5.35;25.38
59829;BME280;45708;51.848;107.620;2023-04-07T03:50:46;94462.03;;;5.70;25.29
59829;BME280;45708;51.848;107.620;2023-04-07T03:55:47;94453.78;;;5.73;25.27
59829;BME280;45708;51.848;107.620;2023-04-07T04:00:48;94446.31;;;5.70;25.51
59829;BME280;45708;51.848;107.620;2023-04-07T04:05:48;94443.25;;;5.99;25.13
59829;BME280;45708;51.848;107.620;2023-04-07T04:10:49;94435.31;;;6.26;25.02
59829;BME280;45708;51.848;107.620;2023-04-07T04:15:51;94424.09;;;6.50;24.74
59829;BME280;45708;51.848;107.620;2023-04-07T04:20:51;94410.16;;;6.88;24.95
59829;BME280;45708;51.848;107.620;2023-04-07T04:25:52;94400.09;;;6.85;24.87
59829;BME280;45708;51.848;107.620;2023-04-07T04:30:53;94400.09;;;6.85;24.86
59829;BME280;45708;51.848;107.620;2023-04-07T04:35:54;94381.22;;;7.19;24.64
59829;BME280;45708;51.848;107.620;2023-04-07T04:40:54;94361.84;;;7.39;23.29
59829;BME280;45708;51.848;107.620;2023-04-07T04:45:55;94348.03;;;7.68;23.79
59829;BME280;45708;51.848;107.620;2023-04-07T04:50:56;94334.28;;;8.03;23.35
59829;BME280;45708;51.848;107.620;2023-04-07T04:55:57;94339.19;;;8.29;22.11
59829;BME280;45708;51.848;107.620;2023-04-07T05:00:58;94318.50;;;8.33;22.44
59829;BME280;45708;51.848;107.620;2023-04-07T05:05:58;94305.47;;;8.68;21.92
59829;BME280;45708;51.848;107.620;2023-04-07T05:10:59;94300.91;;;8.98;20.27
59829;BME280;45708;51.848;107.620;2023-04-07T05:16:00;94298.88;;;9.24;19.53
59829;BME280;45708;51.848;107.620;2023-04-07T05:21:01;94291.66;;;9.31;19.45
59829;BME280;45708;51.848;107.620;2023-04-07T05:26:02;94275.72;;;9.49;19.06
59829;BME280;45708;51.848;107.620;2023-04-07T05:31:02;94261.50;;;9.50;19.27
59829;BME280;45708;51.848;107.620;2023-04-07T05:36:03;94255.44;;;9.90;19.63
59829;BME280;45708;51.848;107.620;2023-04-07T05:41:04;94242.53;;;10.05;18.89
59829;BME280;45708;51.848;107.620;2023-04-07T05:46:05;94222.72;;;10.02;19.37
59829;BME280;45708;51.848;107.620;2023-04-07T05:51:06;94217.50;;;10.36;18.83
59829;BME280;45708;51.848;107.620;2023-04-07T05:56:07;94202.16;;;10.50;18.33
59829;BME280;45708;51.848;107.620;2023-04-07T06:01:07;94186.06;;;10.68;17.84
59829;BME280;45708;51.848;107.620;2023-04-07T06:06:09;94177.25;;;10.79;17.67
59829;BME280;45708;51.848;107.620;2023-04-07T06:11:09;94168.94;;;10.87;17.15
59829;BME280;45708;51.848;107.620;2023-04-07T06:16:10;94152.31;;;11.09;17.05
59829;BME280;45708;51.848;107.620;2023-04-07T06:21:11;94138.09;;;11.15;17.24
59829;BME280;45708;51.848;107.620;2023-04-07T06:26:12;94140.44;;;11.33;16.85
59829;BME280;45708;51.848;107.620;2023-04-07T06:31:13;94127.28;;;11.38;16.77
59829;BME280;45708;51.848;107.620;2023-04-07T06:36:14;94109.50;;;11.55;17.11
59829;BME280;45708;51.848;107.620;2023-04-07T06:41:14;94093.81;;;11.76;16.90
59829;BME280;45708;51.848;107.620;2023-04-07T06:46:15;94081.25;;;11.61;16.76
59829;BME280;45708;51.848;107.620;2023-04-07T06:51:16;94079.69;;;11.87;16.31
59829;BME280;45708;51.848;107.620;2023-04-07T06:56:17;94063.31;;;11.90;16.41
59829;BME280;45708;51.848;107.620;2023-04-07T07:01:18;94058.06;;;12.00;16.32
59829;BME280;45708;51.848;107.620;2023-04-07T07:06:19;94048.00;;;11.97;16.59
59829;BME280;45708;51.848;107.620;2023-04-07T07:11:20;94031.25;;;11.86;16.90
59829;BME280;45708;51.848;107.620;2023-04-07T07:16:21;94022.78;;;12.22;16.59
59829;BME280;45708;51.848;107.620;2023-04-07T07:21:21;94003.69;;;12.19;16.54
59829;BME280;45708;51.848;107.620;2023-04-07T07:26:22;94003.78;;;12.35;16.32
59829;BME280;45708;51.848;107.620;2023-04-07T07:31:23;93990.84;;;12.38;15.63
59829;BME280;45708;51.848;107.620;2023-04-07T07:36:24;93981.84;;;12.39;16.16
59829;BME280;45708;51.848;107.620;2023-04-07T07:41:24;93971.66;;;12.63;16.02
59829;BME280;45708;51.848;107.620;2023-04-07T07:46:25;93961.59;;;12.75;15.71
59829;BME280;45708;51.848;107.620;2023-04-07T07:51:26;93931.13;;;12.68;15.53
59829;BME280;45708;51.848;107.620;2023-04-07T07:56:27;93921.91;;;12.86;15.52
59829;BME280;45708;51.848;107.620;2023-04-07T08:01:28;93919.25;;;13.01;15.18
59829;BME280;45708;51.848;107.620;2023-04-07T08:06:29;93901.22;;;12.93;15.24
59829;BME280;45708;51.848;107.620;2023-04-07T08:11:29;93886.94;;;12.99;15.13
59829;BME280;45708;51.848;107.620;2023-04-07T08:16:30;93876.63;;;13.02;16.19
59829;BME280;45708;51.848;107.620;2023-04-07T08:21:31;93857.25;;;13.07;15.19
59829;BME280;45708;51.848;107.620;2023-04-07T08:26:32;93851.97;;;13.07;14.96
59829;BME280;45708;51.848;107.620;2023-04-07T08:31:33;93833.91;;;13.14;15.46
59829;BME280;45708;51.848;107.620;2023-04-07T08:36:33;93821.75;;;13.28;15.19
59829;BME280;45708;51.848;107.620;2023-04-07T08:41:39;93795.75;;;13.40;15.05
59829;BME280;45708;51.848;107.620;2023-04-07T08:46:40;93805.84;;;13.33;14.89
59829;BME280;45708;51.848;107.620;2023-04-07T08:51:45;93801.59;;;13.37;15.05
59829;BME280;45708;51.848;107.620;2023-04-07T08:56:46;93793.09;;;13.35;15.07
59829;BME280;45708;51.848;107.620;2023-04-07T09:01:48;93782.50;;;13.30;14.93
59829;BME280;45708;51.848;107.620;2023-04-07T09:06:49;93768.16;;;13.36;15.30
59829;BME280;45708;51.848;107.620;2023-04-07T09:11:50;93752.53;;;13.45;15.17
59829;BME280;45708;51.848;107.620;2023-04-07T09:16:50;93766.59;;;13.35;15.21
59829;BME280;45708;51.848;107.620;2023-04-07T09:21:52;93765.25;;;13.38;14.80
59829;BME280;45708;51.848;107.620;2023-04-07T09:27:18;93746.41;;;13.45;15.30
59829;BME280;45708;51.848;107.620;2023-04-07T09:32:35;93729.44;;;13.46;15.25
59829;BME280;45708;51.848;107.620;2023-04-07T09:37:38;93743.81;;;13.24;15.09
59829;BME280;45708;51.848;107.620;2023-04-07T09:42:45;93737.94;;;13.17;15.49
59829;BME280;45708;51.848;107.620;2023-04-07T09:47:46;93730.00;;;13.07;15.46
59829;BME280;45708;51.848;107.620;2023-04-07T09:52:48;93722.88;;;12.87;15.35
59829;BME280;45708;51.848;107.620;2023-04-07T09:57:50;93710.13;;;12.79;16.46
59829;BME280;45708;51.848;107.620;2023-04-07T10:02:51;93705.63;;;12.90;15.79
59829;BME280;45708;51.848;107.620;2023-04-07T10:07:52;93691.34;;;12.70;16.32
59829;BME280;45708;51.848;107.620;2023-04-07T10:12:53;93684.41;;;12.95;15.67
59829;BME280;45708;51.848;107.620;2023-04-07T10:17:55;93681.00;;;12.84;15.94
59829;BME280;45708;51.848;107.620;2023-04-07T10:23:16;93677.53;;;12.78;15.80
59829;BME280;45708;51.848;107.620;2023-04-07T10:28:20;93671.72;;;12.82;15.90
59829;BME280;45708;51.848;107.620;2023-04-07T10:33:48;93665.91;;;12.54;16.60
59829;BME280;45708;51.848;107.620;2023-04-07T10:44:09;93643.94;;;12.23;16.97
59829;BME280;45708;51.848;107.620;2023-04-07T10:49:30;93646.28;;;12.09;16.76
59829;BME280;45708;51.848;107.620;2023-04-07T10:54:31;93622.13;;;11.75;17.31
59829;BME280;45708;51.848;107.620;2023-04-07T10:59:32;93616.50;;;11.41;17.23
59829;BME280;45708;51.848;107.620;2023-04-07T11:04:37;93615.38;;;11.27;17.40
59829;BME280;45708;51.848;107.620;2023-04-07T11:09:41;93614.22;;;11.03;17.71
59829;BME280;45708;51.848;107.620;2023-04-07T11:14:42;93602.91;;;10.65;18.26
59829;BME280;45708;51.848;107.620;2023-04-07T11:19:52;93604.25;;;10.25;18.51
59829;BME280;45708;51.848;107.620;2023-04-07T11:24:53;93599.09;;;9.82;18.87
59829;BME280;45708;51.848;107.620;2023-04-07T11:29:55;93541.00;;;9.18;19.18
59829;BME280;45708;51.848;107.620;2023-04-07T11:34:56;93585.69;;;9.07;19.73
59829;BME280;45708;51.848;107.620;2023-04-07T11:39:58;93578.06;;;8.67;20.06
59829;BME280;45708;51.848;107.620;2023-04-07T11:45:00;93568.16;;;8.36;20.84
59829;BME280;45708;51.848;107.620;2023-04-07T11:50:01;93566.50;;;7.96;20.95
59829;BME280;45708;51.848;107.620;2023-04-07T11:55:02;93562.19;;;7.56;21.01
59829;BME280;45708;51.848;107.620;2023-04-07T12:00:10;93555.28;;;7.22;21.45
59829;BME280;45708;51.848;107.620;2023-04-07T12:05:15;93549.50;;;7.08;22.14
59829;BME280;45708;51.848;107.620;2023-04-07T12:10:23;93552.41;;;6.95;22.61
59829;BME280;45708;51.848;107.620;2023-04-07T12:15:24;93555.28;;;7.22;22.20
59829;BME280;45708;51.848;107.620;2023-04-07T12:20:25;93547.53;;;7.44;21.85
59829;BME280;45708;51.848;107.620;2023-04-07T12:25:26;93551.38;;;7.70;21.60
59829;BME280;45708;51.848;107.620;2023-04-07T12:30:27;93542.13;;;7.67;21.77
59829;BME280;45708;51.848;107.620;2023-04-07T12:35:29;93534.28;;;7.39;21.63
59829;BME280;45708;51.848;107.620;2023-04-07T12:40:30;93529.91;;;7.27;21.26
59829;BME280;45708;51.848;107.620;2023-04-07T12:45:30;93526.16;;;7.23;22.17
59829;BME280;45708;51.848;107.620;2023-04-07T12:50:31;93527.56;;;7.14;21.91
59829;BME280;45708;51.848;107.620;2023-04-07T12:55:32;93520.44;;;7.26;22.01
59829;BME280;45708;51.848;107.620;2023-04-07T13:00:34;93512.38;;;7.16;22.68
59829;BME280;45708;51.848;107.620;2023-04-07T13:05:36;93514.81;;;7.06;22.75
59829;BME280;45708;51.848;107.620;2023-04-07T13:10:37;93500.94;;;6.94;22.38
59829;BME280;45708;51.848;107.620;2023-04-07T13:15:38;93506.47;;;6.81;23.21
59829;BME280;45708;51.848;107.620;2023-04-07T13:20:38;93489.94;;;6.40;23.26
59829;BME280;45708;51.848;107.620;2023-04-07T13:25:39;93488.63;;;6.26;23.49
59829;BME280;45708;51.848;107.620;2023-04-07T13:30:40;93478.94;;;6.15;23.74
59829;BME280;45708;51.848;107.620;2023-04-07T13:35:41;93481.34;;;6.04;23.54
59829;BME280;45708;51.848;107.620;2023-04-07T13:40:42;93477.94;;;5.92;23.60
59829;BME280;45708;51.848;107.620;2023-04-07T13:45:43;93471.09;;;5.91;23.96
59829;BME280;45708;51.848;107.620;2023-04-07T13:50:44;93455.38;;;5.68;24.45
59829;BME280;45708;51.848;107.620;2023-04-07T13:55:44;93451.06;;;5.62;24.25
59829;BME280;45708;51.848;107.620;2023-04-07T14:00:45;93455.13;;;5.34;24.98
59829;BME280;45708;51.848;107.620;2023-04-07T14:05:46;93452.03;;;5.02;25.73
59829;BME280;45708;51.848;107.620;2023-04-07T14:10:47;93439.06;;;4.77;25.38
59829;BME280;45708;51.848;107.620;2023-04-07T14:15:48;93437.69;;;4.63;25.95
59829;BME280;45708;51.848;107.620;2023-04-07T14:20:49;93434.56;;;4.43;26.38
59829;BME280;45708;51.848;107.620;2023-04-07T14:25:50;93413.13;;;4.64;25.93
59829;BME280;45708;51.848;107.620;2023-04-07T14:30:51;93426.31;;;4.39;27.43
59829;BME280;45708;51.848;107.620;2023-04-07T14:35:52;93415.19;;;4.14;27.42
59829;BME280;45708;51.848;107.620;2023-04-07T14:40:53;93413.13;;;3.86;27.76
59829;BME280;45708;51.848;107.620;2023-04-07T14:45:53;93398.63;;;3.72;28.77
59829;BME280;45708;51.848;107.620;2023-04-07T14:50:55;93396.41;;;3.32;29.49
59829;BME280;45708;51.848;107.620;2023-04-07T14:55:56;93396.91;;;2.97;30.24
59829;BME280;45708;51.848;107.620;2023-04-07T15:00:57;93387.44;;;2.78;30.84
59829;BME280;45708;51.848;107.620;2023-04-07T15:05:58;93387.22;;;2.80;31.57
59829;BME280;45708;51.848;107.620;2023-04-07T15:10:58;93389.41;;;2.58;31.56
59829;BME280;45708;51.848;107.620;2023-04-07T15:21:08;93376.59;;;2.25;32.67
59829;BME280;45708;51.848;107.620;2023-04-07T15:26:09;93356.31;;;1.95;32.63
59829;BME280;45708;51.848;107.620;2023-04-07T15:31:10;93371.16;;;1.95;32.99
59829;BME280;45708;51.848;107.620;2023-04-07T15:36:10;93324.88;;;1.52;33.01
59829;BME280;45708;51.848;107.620;2023-04-07T15:41:15;93370.50;;;1.61;33.54
59829;BME280;45708;51.848;107.620;2023-04-07T15:46:15;93366.75;;;1.44;34.08
59829;BME280;45708;51.848;107.620;2023-04-07T15:51:17;93344.63;;;1.21;34.12
59829;BME280;45708;51.848;107.620;2023-04-07T15:56:17;93337.00;;;1.27;34.33
59829;BME280;45708;51.848;107.620;2023-04-07T16:01:20;93326.63;;;1.13;35.24
59829;BME280;45708;51.848;107.620;2023-04-07T16:06:22;93348.41;;;1.26;35.19
59829;BME280;45708;51.848;107.620;2023-04-07T16:11:22;93271.72;;;0.83;35.41
59829;BME280;45708;51.848;107.620;2023-04-07T16:16:24;93312.59;;;1.14;35.79
59829;BME280;45708;51.848;107.620;2023-04-07T16:21:25;93331.13;;;1.38;35.66
59829;BME280;45708;51.848;107.620;2023-04-07T16:26:26;93333.16;;;1.36;35.87
59829;BME280;45708;51.848;107.620;2023-04-07T16:31:27;93326.19;;;1.16;36.31
59829;BME280;45708;51.848;107.620;2023-04-07T16:36:28;93333.88;;;0.85;36.56
59829;BME280;45708;51.848;107.620;2023-04-07T16:41:29;93261.16;;;0.52;35.50
59829;BME280;45708;51.848;107.620;2023-04-07T16:46:29;93296.09;;;0.89;36.03
59829;BME280;45708;51.848;107.620;2023-04-07T16:51:30;93314.28;;;0.76;36.44
59829;BME280;45708;51.848;107.620;2023-04-07T16:56:31;93308.31;;;0.55;37.51
59829;BME280;45708;51.848;107.620;2023-04-07T17:01:32;93309.94;;;0.37;37.73
59829;BME280;45708;51.848;107.620;2023-04-07T17:06:33;93278.75;;;-0.03;38.44
59829;BME280;45708;51.848;107.620;2023-04-07T17:11:34;93311.53;;;0.05;38.61
59829;BME280;45708;51.848;107.620;2023-04-07T17:16:35;93300.75;;;0.08;38.34
59829;BME280;45708;51.848;107.620;2023-04-07T17:21:36;93296.38;;;0.21;37.77
59829;BME280;45708;51.848;107.620;2023-04-07T17:26:37;93279.97;;;0.08;38.56
59829;BME280;45708;51.848;107.620;2023-04-07T17:31:37;93260.59;;;-0.10;39.28
59829;BME280;45708;51.848;107.620;2023-04-07T17:36:38;93286.75;;;-0.05;39.04
59829;BME280;45708;51.848;107.620;2023-04-07T17:41:39;93287.13;;;-0.21;38.96
59829;BME280;45708;51.848;107.620;2023-04-07T17:46:40;93306.25;;;-0.35;38.73
59829;BME280;45708;51.848;107.620;2023-04-07T17:51:41;93306.63;;;-0.45;39.48
59829;BME280;45708;51.848;107.620;2023-04-07T17:56:42;93286.19;;;-0.68;40.23
59829;BME280;45708;51.848;107.620;2023-04-07T18:01:42;93270.22;;;-0.78;41.00
59829;BME280;45708;51.848;107.620;2023-04-07T18:06:43;93247.69;;;-0.77;40.99
59829;BME280;45708;51.848;107.620;2023-04-07T18:11:44;93259.88;;;-0.65;39.86
59829;BME280;45708;51.848;107.620;2023-04-07T18:16:45;93263.06;;;-0.69;40.26
59829;BME280;45708;51.848;107.620;2023-04-07T18:21:46;93195.94;;;-1.12;41.32
59829;BME280;45708;51.848;107.620;2023-04-07T18:26:47;93233.88;;;-0.91;40.16
59829;BME280;45708;51.848;107.620;2023-04-07T18:31:48;93245.47;;;-0.87;40.63
59829;BME280;45708;51.848;107.620;2023-04-07T18:36:48;93216.66;;;-1.12;40.28
59829;BME280;45708;51.848;107.620;2023-04-07T18:41:49;93233.63;;;-1.03;40.23
59829;BME280;45708;51.848;107.620;2023-04-07T18:46:50;93142.13;;;-1.64;41.22
59829;BME280;45708;51.848;107.620;2023-04-07T18:51:51;93229.03;;;-1.07;41.67
59829;BME280;45708;51.848;107.620;2023-04-07T18:56:52;93206.63;;;-1.35;41.29
59829;BME280;45708;51.848;107.620;2023-04-07T19:01:54;93248.91;;;-1.21;42.16
59829;BME280;45708;51.848;107.620;2023-04-07T19:06:55;93233.25;;;-1.41;42.96
59829;BME280;45708;51.848;107.620;2023-04-07T19:11:55;93228.81;;;-1.60;43.95
59829;BME280;45708;51.848;107.620;2023-04-07T19:16:56;93229.47;;;-1.79;44.21
59829;BME280;45708;51.848;107.620;2023-04-07T19:21:57;93204.41;;;-1.72;44.63
59829;BME280;45708;51.848;107.620;2023-04-07T19:26:58;93177.81;;;-1.60;42.64
59829;BME280;45708;51.848;107.620;2023-04-07T19:31:59;93224.97;;;-1.30;42.63
59829;BME280;45708;51.848;107.620;2023-04-07T19:37:00;93189.78;;;-1.52;42.40
59829;BME280;45708;51.848;107.620;2023-04-07T19:42:01;93217.88;;;-1.49;42.83
59829;BME280;45708;51.848;107.620;2023-04-07T19:47:01;93155.72;;;-1.97;43.19
59829;BME280;45708;51.848;107.620;2023-04-07T19:52:02;93191.25;;;-1.77;42.59
59829;BME280;45708;51.848;107.620;2023-04-07T19:57:03;93204.38;;;-1.79;44.07
59829;BME280;45708;51.848;107.620;2023-04-07T20:02:04;93200.72;;;-1.91;44.38
59829;BME280;45708;51.848;107.620;2023-04-07T20:07:05;93181.09;;;-2.07;44.91
59829;BME280;45708;51.848;107.620;2023-04-07T20:12:06;93181.50;;;-2.10;43.91
59829;BME280;45708;51.848;107.620;2023-04-07T20:17:07;93128.91;;;-2.45;44.76
59829;BME280;45708;51.848;107.620;2023-04-07T20:22:08;93182.66;;;-2.12;44.52
59829;BME280;45708;51.848;107.620;2023-04-07T20:27:08;93190.56;;;-2.21;45.54
59829;BME280;45708;51.848;107.620;2023-04-07T20:32:09;93182.91;;;-2.35;45.10
59829;BME280;45708;51.848;107.620;2023-04-07T20:37:10;93140.84;;;-2.72;46.14
59829;BME280;45708;51.848;107.620;2023-04-07T20:42:11;93159.13;;;-2.73;46.47
59829;BME280;45708;51.848;107.620;2023-04-07T20:47:12;93178.38;;;-2.76;46.11
59829;BME280;45708;51.848;107.620;2023-04-07T20:52:12;93152.16;;;-2.94;46.21
59829;BME280;45708;51.848;107.620;2023-04-07T20:57:13;93164.47;;;-2.96;46.01
59829;BME280;45708;51.848;107.620;2023-04-07T21:02:14;93182.41;;;-2.88;46.19
59829;BME280;45708;51.848;107.620;2023-04-07T21:07:15;93194.25;;;-2.79;47.80
59829;BME280;45708;51.848;107.620;2023-04-07T21:12:16;93201.38;;;-2.81;47.45
59829;BME280;45708;51.848;107.620;2023-04-07T21:17:17;93141.56;;;-3.21;46.96
59829;BME280;45708;51.848;107.620;2023-04-07T21:22:18;93156.34;;;-3.15;48.49
59829;BME280;45708;51.848;107.620;2023-04-07T21:27:18;93197.06;;;-2.95;47.35
59829;BME280;45708;51.848;107.620;2023-04-07T21:32:19;93191.81;;;-3.02;48.68
59829;BME280;45708;51.848;107.620;2023-04-07T21:37:20;93205.59;;;-3.16;49.11
59829;BME280;45708;51.848;107.620;2023-04-07T21:42:21;93200.31;;;-3.23;49.16
59829;BME280;45708;51.848;107.620;2023-04-07T21:47:21;93218.53;;;-3.31;49.32
59829;BME280;45708;51.848;107.620;2023-04-07T21:52:22;93199.28;;;-3.43;48.27
59829;BME280;45708;51.848;107.620;2023-04-07T21:57:23;93192.28;;;-3.49;48.76
59829;BME280;45708;51.848;107.620;2023-04-07T22:02:25;93213.47;;;-3.39;49.63
59829;BME280;45708;51.848;107.620;2023-04-07T22:07:26;93205.72;;;-3.39;48.34
59829;BME280;45708;51.848;107.620;2023-04-07T22:12:26;93165.00;;;-3.58;48.66
59829;BME280;45708;51.848;107.620;2023-04-07T22:17:27;93195.84;;;-3.35;49.75
59829;BME280;45708;51.848;107.620;2023-04-07T22:22:28;93219.13;;;-3.29;50.13
59829;BME280;45708;51.848;107.620;2023-04-07T22:27:29;93212.63;;;-3.25;49.23
59829;BME280;45708;51.848;107.620;2023-04-07T22:32:30;93225.28;;;-3.30;50.60
59829;BME280;45708;51.848;107.620;2023-04-07T22:37:32;93194.59;;;-3.54;49.78
59829;BME280;45708;51.848;107.620;2023-04-07T22:42:32;93185.78;;;-3.45;49.04
59829;BME280;45708;51.848;107.620;2023-04-07T22:47:33;93163.53;;;-3.46;49.76
59829;BME280;45708;51.848;107.620;2023-04-07T22:52:34;93180.59;;;-3.30;50.21
59829;BME280;45708;51.848;107.620;2023-04-07T22:57:35;93221.16;;;-2.24;50.69
59829;BME280;45708;51.848;107.620;2023-04-07T23:02:35;93219.16;;;-0.84;48.16
59829;BME280;45708;51.848;107.620;2023-04-07T23:07:37;93230.03;;;0.32;46.70
59829;BME280;45708;51.848;107.620;2023-04-07T23:12:37;93221.97;;;1.56;43.56
59829;BME280;45708;51.848;107.620;2023-04-07T23:17:39;93231.59;;;2.98;40.78
59829;BME280;45708;51.848;107.620;2023-04-07T23:22:40;93229.59;;;4.79;38.83
59829;BME280;45708;51.848;107.620;2023-04-07T23:27:41;93193.59;;;6.06;36.65
59829;BME280;45708;51.848;107.620;2023-04-07T23:32:41;93229.16;;;7.47;34.19
59829;BME280;45708;51.848;107.620;2023-04-07T23:37:42;93199.47;;;8.27;32.85
59829;BME280;45708;51.848;107.620;2023-04-07T23:42:43;93233.53;;;9.65;31.38
59829;BME280;45708;51.848;107.620;2023-04-07T23:47:44;93215.25;;;10.77;29.18
59829;BME280;45708;51.848;107.620;2023-04-07T23:52:44;93227.69;;;11.77;28.48
59829;BME280;45708;51.848;107.620;2023-04-07T23:57:45;93228.63;;;12.90;27.37
